Terminal Aerodrome Forecast
Issued by NWS

Home | Current Version | Previous Version | Text Only | Print | Product List | Glossary On
Versions: 1 2 3 4 5 6 7 8 9 10 11 12 13 14 15 16 17 18 19 20 21 22 23 24 25 26 27 28 29 30 31 32
000
FTUS43 KPAH 140416 AAB
TAFOWB
TAF AMD
KOWB 140416Z 1404/1424 31010KT P6SM SCT030
     FM140600 31011G19KT P6SM BKN030
     FM141200 35007KT P6SM SCT028
     FM141700 36005KT P6SM BKN080=

USA.gov is the U.S. government's official web portal to all federal, state and local government web resources and services.